Time;durP1;ratioP1;P1;durP2;ratioP2;P2;SDS_P1;SDS_P2;PMS_P1;PMS_P2;Temp;Humidity;BMP_temperature;BMP_pressure;BME280_temperature;BME280_humidity;BME280_pressure;Samples;Min_cycle;Max_cycle;Signal;HPM_P1;HPM_P2
2022/12/18 00:03:01;;;;;;;102.67;45.47;;;-4.20;1.00;;;;;;10395686;28;20213;-80
2022/12/18 00:08:23;;;;;;;86.77;40.03;;;-4.20;61.50;;;;;;10394892;28;20258;-80
2022/12/18 00:13:44;;;;;;;75.50;33.53;;;-4.20;1.00;;;;;;10380645;28;20208;-80
2022/12/18 00:19:07;;;;;;;73.27;32.97;;;-4.20;1.00;;;;;;10394864;28;20244;-81
2022/12/18 00:24:28;;;;;;;79.63;35.20;;;-4.20;1.00;;;;;;10394623;28;20197;-80
2022/12/18 00:29:49;;;;;;;80.40;33.93;;;-4.20;1.00;;;;;;10380350;28;20239;-80
2022/12/18 00:35:11;;;;;;;74.60;32.63;;;-4.20;1.00;;;;;;10380877;28;20527;-80
2022/12/18 00:40:33;;;;;;;80.27;33.17;;;-4.20;1.00;;;;;;10380516;28;20200;-80
2022/12/18 00:45:54;;;;;;;72.60;30.83;;;-4.20;1.00;;;;;;10379906;28;20201;-80
2022/12/18 00:51:15;;;;;;;78.60;35.77;;;-4.20;1.00;;;;;;10380351;28;20491;-80
2022/12/18 00:56:38;;;;;;;88.60;37.73;;;-4.10;1.00;;;;;;10386773;28;20236;-80
2022/12/18 01:02:05;;;;;;;81.20;37.00;;;-4.10;1.00;;;;;;10387015;28;20204;-80
2022/12/18 01:07:26;;;;;;;89.67;37.43;;;-4.10;99.90;;;;;;10387626;28;20237;-79
2022/12/18 01:12:48;;;;;;;73.67;31.87;;;-4.10;1.00;;;;;;10387179;28;20195;-80
2022/12/18 01:18:10;;;;;;;69.80;30.53;;;-4.20;99.90;;;;;;10386924;28;20225;-79
2022/12/18 01:23:32;;;;;;;72.47;31.17;;;-4.30;1.00;;;;;;10401133;28;20194;-80
2022/12/18 01:28:56;;;;;;;62.07;29.33;;;-4.40;1.00;;;;;;10400610;28;20190;-81
2022/12/18 01:34:17;;;;;;;67.80;32.27;;;-4.40;1.00;;;;;;10386918;28;20233;-80
2022/12/18 01:39:38;;;;;;;66.73;30.70;;;-4.40;1.00;;;;;;10386366;28;20255;-79
2022/12/18 01:45:10;;;;;;;64.40;29.73;;;-4.40;1.00;;;;;;10399686;28;20192;-80
2022/12/18 01:50:41;;;;;;;64.60;28.23;;;-4.40;1.00;;;;;;10386022;28;20209;-80
2022/12/18 01:56:05;;;;;;;62.63;28.17;;;-4.30;1.00;;;;;;10385731;28;20307;-80
2022/12/18 02:01:27;;;;;;;71.00;30.03;;;-4.30;1.00;;;;;;10385118;28;20201;-80
2022/12/18 02:07:02;;;;;;;64.90;29.97;;;-4.40;99.90;;;;;;10399366;28;20195;-80
2022/12/18 02:12:31;;;;;;;64.10;30.23;;;-4.30;81.70;;;;;;10384390;28;20276;-81
2022/12/18 02:18:24;;;;;;;53.57;25.77;;;-4.20;99.90;;;;;;10347156;28;20231;-80
2022/12/18 02:24:03;;;;;;;59.37;29.07;;;-4.10;1.00;;;;;;10365993;28;20209;-79
2022/12/18 02:29:29;;;;;;;73.70;33.20;;;-4.00;99.90;;;;;;10398203;28;20234;-80
2022/12/18 02:34:52;;;;;;;57.77;27.47;;;-4.00;99.90;;;;;;10398369;28;20212;-80
2022/12/18 02:40:18;;;;;;;49.17;24.20;;;-3.90;99.90;;;;;;10398133;28;20187;-80
2022/12/18 02:45:55;;;;;;;62.80;24.93;;;-3.90;99.90;;;;;;10383765;28;20220;-80
2022/12/18 02:51:28;;;;;;;64.63;29.10;;;-4.00;35.20;;;;;;10383709;28;20245;-80
2022/12/18 02:56:55;;;;;;;64.23;29.07;;;-4.20;99.90;;;;;;10383090;28;20418;-79
2022/12/18 03:02:26;;;;;;;58.77;29.73;;;-4.20;75.70;;;;;;10392262;28;20223;-81
2022/12/18 03:07:56;;;;;;;50.93;25.57;;;-4.30;91.60;;;;;;10397223;28;20231;-78
2022/12/18 03:13:36;;;;;;;51.13;24.07;;;-4.30;99.90;;;;;;10382421;28;20212;-78
2022/12/18 03:19:10;;;;;;;55.07;25.67;;;-4.40;99.90;;;;;;10382039;28;20209;-80
2022/12/18 03:24:38;;;;;;;56.93;22.60;;;-4.40;99.90;;;;;;10397430;28;20485;-78
2022/12/18 03:30:08;;;;;;;42.80;22.23;;;-4.50;99.90;;;;;;10381847;28;20252;-80
2022/12/18 03:35:40;;;;;;;57.87;24.67;;;-4.50;99.90;;;;;;10380407;28;20233;-77
2022/12/18 03:41:25;;;;;;;45.77;22.37;;;-4.50;1.00;;;;;;10394744;28;20194;-78
2022/12/18 03:47:32;;;;;;;42.00;20.83;;;-4.60;99.90;;;;;;10386645;28;20212;-78
2022/12/18 03:53:12;;;;;;;51.67;22.70;;;-4.70;99.90;;;;;;10393856;28;20285;-78
2022/12/18 03:58:38;;;;;;;57.33;26.30;;;-4.80;1.00;;;;;;10387923;28;20228;-78
2022/12/18 04:04:12;;;;;;;58.83;27.60;;;-4.80;99.90;;;;;;10380296;28;20513;-79
2022/12/18 04:09:35;;;;;;;55.30;26.73;;;-4.80;1.00;;;;;;10379229;28;20235;-79
2022/12/18 04:14:57;;;;;;;56.77;25.57;;;-4.90;1.00;;;;;;10379202;28;20548;-79
2022/12/18 04:20:18;;;;;;;58.97;29.30;;;-4.90;1.00;;;;;;10393285;28;20215;-78
2022/12/18 04:25:41;;;;;;;58.07;27.70;;;-5.00;1.00;;;;;;10392903;28;20216;-79
2022/12/18 04:31:05;;;;;;;65.30;30.30;;;-5.00;99.90;;;;;;10331126;28;1185406;-79
2022/12/18 04:36:27;;;;;;;75.63;33.50;;;-5.20;1.00;;;;;;10388794;28;20228;-79
2022/12/18 04:41:49;;;;;;;66.40;32.00;;;-5.40;1.00;;;;;;10388366;28;20243;-79
2022/12/18 04:47:11;;;;;;;78.50;38.40;;;-5.40;99.90;;;;;;10361652;28;20277;-78
2022/12/18 04:52:32;;;;;;;75.43;35.30;;;-5.50;1.00;;;;;;10361599;28;20410;-79
2022/12/18 04:57:53;;;;;;;71.40;32.40;;;-5.50;1.00;;;;;;10382983;28;20231;-79
2022/12/18 05:03:15;;;;;;;65.77;29.77;;;-5.60;1.00;;;;;;10401460;28;20236;-79
2022/12/18 05:08:36;;;;;;;55.70;25.67;;;-5.70;99.90;;;;;;10401637;28;20189;-79
2022/12/18 05:13:57;;;;;;;54.80;24.07;;;-5.80;99.90;;;;;;10372997;28;20238;-79
2022/12/18 05:19:18;;;;;;;61.73;28.90;;;-5.80;99.90;;;;;;10360843;28;20195;-79
2022/12/18 05:24:40;;;;;;;58.93;27.37;;;-5.80;1.00;;;;;;10361058;28;20198;-79
2022/12/18 05:30:01;;;;;;;54.67;27.03;;;-5.90;1.00;;;;;;10360568;28;20582;-78
2022/12/18 05:35:22;;;;;;;88.57;48.60;;;-5.90;1.00;;;;;;10362033;28;20226;-80
2022/12/18 05:40:44;;;;;;;70.27;41.13;;;-5.90;1.00;;;;;;10381065;28;20473;-79
2022/12/18 05:46:12;;;;;;;55.03;27.13;;;-6.20;1.00;;;;;;10386024;28;20204;-78
2022/12/18 05:51:34;;;;;;;64.00;28.20;;;-6.30;1.00;;;;;;10386081;28;20193;-79
2022/12/18 05:56:55;;;;;;;58.30;28.03;;;-6.40;99.90;;;;;;10385680;28;20225;-77
2022/12/18 06:02:16;;;;;;;63.97;28.93;;;-6.40;1.00;;;;;;10399024;28;20201;-79
2022/12/18 06:07:37;;;;;;;53.97;25.03;;;-6.40;99.90;;;;;;10399211;28;20209;-80
2022/12/18 06:12:59;;;;;;;63.90;33.10;;;-6.60;99.90;;;;;;10399044;28;20194;-78
2022/12/18 06:18:20;;;;;;;65.83;32.23;;;-6.70;1.00;;;;;;10384998;28;20527;-79
2022/12/18 06:23:41;;;;;;;77.07;36.63;;;-6.80;99.90;;;;;;10398693;28;20202;-78
2022/12/18 06:29:03;;;;;;;66.33;32.87;;;-6.70;1.00;;;;;;10384156;28;20248;-79
2022/12/18 06:34:24;;;;;;;239.23;117.10;;;-6.70;1.00;;;;;;10398110;28;20205;-79
2022/12/18 06:39:45;;;;;;;173.27;94.83;;;-6.90;1.00;;;;;;10384034;28;20410;-79
2022/12/18 06:45:07;;;;;;;114.93;57.17;;;-6.90;99.90;;;;;;10397598;28;20208;-78
2022/12/18 06:50:29;;;;;;;96.30;48.87;;;-7.00;1.00;;;;;;10382467;28;20192;-79
2022/12/18 06:55:50;;;;;;;579.07;200.17;;;-7.00;1.00;;;;;;10397651;28;20228;-78
2022/12/18 07:01:12;;;;;;;376.13;142.73;;;-7.10;1.00;;;;;;10379409;28;20276;-79
2022/12/18 07:06:33;;;;;;;200.87;87.53;;;-7.00;1.00;;;;;;10396609;28;20197;-78
2022/12/18 07:11:54;;;;;;;132.27;74.80;;;-6.80;1.00;;;;;;10382772;28;20268;-77
2022/12/18 07:17:15;;;;;;;72.27;39.70;;;-6.90;1.00;;;;;;10396695;28;20297;-79
2022/12/18 07:22:37;;;;;;;60.47;29.27;;;-7.00;99.90;;;;;;10397728;28;20268;-79
2022/12/18 07:27:58;;;;;;;87.77;36.07;;;-7.00;1.00;;;;;;10382840;28;20196;-78
2022/12/18 07:33:19;;;;;;;82.83;34.97;;;-6.80;99.90;;;;;;10395842;28;20291;-79
2022/12/18 07:38:40;;;;;;;68.53;32.33;;;-6.30;1.00;;;;;;10396021;28;20216;-79
2022/12/18 07:44:02;;;;;;;72.57;35.57;;;-6.20;1.00;;;;;;10381275;28;20484;-80
2022/12/18 07:49:23;;;;;;;89.43;41.47;;;-6.10;1.00;;;;;;10367846;28;20217;-79
2022/12/18 07:54:45;;;;;;;97.13;43.00;;;-6.00;1.00;;;;;;10395406;28;20216;-78
2022/12/18 08:00:07;;;;;;;126.90;50.33;;;-5.80;1.00;;;;;;10380604;28;20201;-79
2022/12/18 08:05:31;;;;;;;96.00;39.33;;;-5.80;99.90;;;;;;10395923;28;20511;-79
2022/12/18 08:10:52;;;;;;;73.27;32.37;;;-5.70;99.90;;;;;;10380999;28;20189;-78
2022/12/18 08:16:14;;;;;;;61.57;25.70;;;-5.60;1.00;;;;;;10394556;28;20252;-78
2022/12/18 08:21:35;;;;;;;80.97;28.93;;;-5.60;1.00;;;;;;10394354;28;20196;-79
2022/12/18 08:26:57;;;;;;;62.17;27.43;;;-5.60;1.00;;;;;;10395866;28;20224;-79
2022/12/18 08:32:33;;;;;;;63.00;27.83;;;-5.50;1.00;;;;;;10382449;28;20243;-79
2022/12/18 08:37:54;;;;;;;49.83;22.37;;;-5.50;1.00;;;;;;10394437;28;20240;-78
2022/12/18 08:48:55;;;;;;;59.67;28.33;;;-5.10;1.00;;;;;;10380586;28;20201;-79
2022/12/18 08:54:16;;;;;;;43.50;20.77;;;-5.00;99.90;;;;;;10380446;28;20203;-80
2022/12/18 08:59:38;;;;;;;40.70;17.80;;;-4.90;99.90;;;;;;10394756;28;20548;-78
2022/12/18 09:04:59;;;;;;;42.10;19.57;;;-5.00;1.00;;;;;;10380026;28;20280;-78
2022/12/18 09:10:20;;;;;;;41.97;21.90;;;-5.00;99.90;;;;;;10393450;28;20196;-78
2022/12/18 09:15:47;;;;;;;58.10;24.73;;;-5.10;99.90;;;;;;10382957;28;20218;-79
2022/12/18 09:21:20;;;;;;;53.43;22.43;;;-5.00;99.90;;;;;;10402044;28;20194;-79
2022/12/18 09:26:42;;;;;;;55.90;24.70;;;-4.90;99.90;;;;;;10400737;28;20196;-78
2022/12/18 09:32:04;;;;;;;64.27;29.53;;;-4.70;1.00;;;;;;10400312;28;20244;-80
2022/12/18 09:37:25;;;;;;;66.00;27.63;;;-4.70;99.90;;;;;;10400549;28;20216;-80
2022/12/18 09:42:56;;;;;;;90.57;32.90;;;-4.50;99.90;;;;;;10399411;28;20287;-78
2022/12/18 09:48:45;;;;;;;86.03;35.00;;;-4.30;99.90;;;;;;10386244;28;20203;-79
2022/12/18 09:54:14;;;;;;;66.57;24.97;;;-4.30;1.00;;;;;;10385907;28;20204;-79
2022/12/18 09:59:39;;;;;;;84.93;35.87;;;-4.10;99.90;;;;;;10384944;28;20228;-79
2022/12/18 10:05:06;;;;;;;76.53;27.70;;;-4.10;1.00;;;;;;10399436;28;20204;-79
2022/12/18 10:10:43;;;;;;;70.17;24.03;;;-3.90;1.00;;;;;;10398478;28;20192;-79
2022/12/18 10:16:15;;;;;;;74.53;27.83;;;-3.70;1.00;;;;;;10358084;28;20231;-79
2022/12/18 10:22:11;;;;;;;59.53;25.03;;;-3.60;99.90;;;;;;10358314;28;20205;-79
2022/12/18 10:27:32;;;;;;;52.03;24.87;;;-3.40;99.90;;;;;;10342219;28;20212;-79
2022/12/18 10:32:55;;;;;;;45.23;21.10;;;-3.30;99.90;;;;;;10357315;28;20235;-79
2022/12/18 10:38:17;;;;;;;70.63;32.37;;;-3.20;87.00;;;;;;10357377;28;20535;-79
2022/12/18 10:43:40;;;;;;;56.17;28.33;;;-3.10;15.30;;;;;;10357123;28;20208;-79
2022/12/18 10:49:01;;;;;;;42.57;20.73;;;-3.00;99.90;;;;;;10367091;28;20202;-78
2022/12/18 10:54:23;;;;;;;39.93;19.90;;;-3.00;99.90;;;;;;10383458;28;20210;-79
2022/12/18 10:59:56;;;;;;;55.73;23.40;;;-2.80;1.00;;;;;;10411214;28;20304;-81
2022/12/18 11:05:25;;;;;;;37.73;20.60;;;-2.60;99.90;;;;;;10345342;28;20204;-79
2022/12/18 11:10:47;;;;;;;39.90;18.63;;;-2.30;21.10;;;;;;10352893;28;20204;-79
2022/12/18 11:16:17;;;;;;;32.80;16.63;;;-0.60;1.00;;;;;;10382743;28;20231;-79
2022/12/18 11:21:40;;;;;;;32.20;16.27;;;;;;;;;;10382455;28;20196;-78
2022/12/18 11:27:06;;;;;;;31.30;17.00;;;2.00;18.50;;;;;;10382065;28;20211;-78
2022/12/18 11:32:42;;;;;;;33.40;17.27;;;2.60;1.00;;;;;;10396124;28;20562;-79
2022/12/18 11:38:27;;;;;;;29.70;15.77;;;2.40;1.00;;;;;;10396411;28;20262;-79
2022/12/18 11:44:00;;;;;;;30.40;15.93;;;1.50;1.00;;;;;;10368013;28;20488;-78
2022/12/18 11:49:33;;;;;;;35.53;19.27;;;0.70;99.90;;;;;;10381678;28;20208;-79
2022/12/18 11:55:10;;;;;;;35.83;17.63;;;0.40;99.90;;;;;;10395092;28;20186;-80
2022/12/18 12:00:34;;;;;;;38.10;17.97;;;0.40;99.90;;;;;;10380960;28;20205;-78
2022/12/18 12:06:07;;;;;;;46.57;24.83;;;0.80;1.00;;;;;;10381297;28;20514;-79
2022/12/18 12:11:58;;;;;;;47.00;25.20;;;1.30;99.90;;;;;;10380676;28;20225;-79
2022/12/18 12:17:19;;;;;;;42.67;23.10;;;1.20;1.00;;;;;;10380966;28;20540;-78
2022/12/18 12:23:01;;;;;;;40.93;21.43;;;0.50;99.90;;;;;;10380714;28;20272;-78
2022/12/18 12:28:47;;;;;;;45.27;23.80;;;-0.30;1.00;;;;;;10380691;28;20204;-78
2022/12/18 12:34:20;;;;;;;37.87;20.20;;;-0.80;1.00;;;;;;10394848;28;20516;-78
2022/12/18 12:39:43;;;;;;;38.97;19.00;;;-1.10;1.00;;;;;;10393948;28;20301;-78
2022/12/18 12:45:20;;;;;;;38.60;18.63;;;-1.30;99.90;;;;;;10387318;28;20265;-80
2022/12/18 12:50:42;;;;;;;39.67;18.93;;;-1.40;99.90;;;;;;10411701;28;20508;-80
2022/12/18 12:56:04;;;;;;;37.17;17.43;;;-1.50;70.50;;;;;;10388269;28;20444;-79
2022/12/18 13:01:25;;;;;;;65.00;33.13;;;-1.60;42.00;;;;;;10395868;28;20200;-80
2022/12/18 13:07:10;;;;;;;37.90;19.67;;;-1.90;99.90;;;;;;10388184;28;20236;-80
2022/12/18 13:18:32;;;;;;;53.67;25.73;;;-2.10;99.90;;;;;;10308145;28;20284;-79
2022/12/18 13:23:54;;;;;;;58.07;26.27;;;-2.20;67.40;;;;;;10277645;28;20207;-80
2022/12/18 13:29:45;;;;;;;51.57;25.07;;;-2.30;99.90;;;;;;10261099;28;20231;-81
2022/12/18 13:35:26;;;;;;;53.43;26.13;;;-2.50;29.80;;;;;;10276839;28;20211;-80
2022/12/18 13:40:47;;;;;;;60.07;27.93;;;-2.60;99.90;;;;;;10276021;28;20202;-79
2022/12/18 13:46:28;;;;;;;81.63;34.30;;;-2.70;1.00;;;;;;10295436;28;20216;-79
2022/12/18 13:51:52;;;;;;;106.80;38.10;;;-2.80;1.00;;;;;;10361822;28;20307;-80
2022/12/18 13:57:31;;;;;;;138.80;52.93;;;-2.80;1.00;;;;;;10345347;28;20600;-79
2022/12/18 14:02:52;;;;;;;85.27;36.77;;;-2.80;1.00;;;;;;10409612;28;20496;-79
2022/12/18 14:08:17;;;;;;;64.33;27.23;;;-2.80;99.90;;;;;;10385867;28;20197;-79
2022/12/18 14:13:41;;;;;;;76.40;29.33;;;-2.90;1.00;;;;;;10399559;28;20237;-80
2022/12/18 14:19:03;;;;;;;74.83;29.33;;;-3.00;99.90;;;;;;10384764;28;20236;-79
2022/12/18 14:24:24;;;;;;;91.17;33.33;;;-3.10;99.90;;;;;;10398639;28;20522;-79
2022/12/18 14:29:45;;;;;;;88.63;41.73;;;-3.20;99.90;;;;;;10384290;28;20302;-79
2022/12/18 14:35:13;;;;;;;90.20;36.50;;;-3.30;99.90;;;;;;10397973;28;20200;-80
2022/12/18 14:40:34;;;;;;;95.57;37.80;;;-3.60;1.00;;;;;;10383900;28;20201;-80
2022/12/18 14:45:57;;;;;;;92.73;38.50;;;-3.70;1.00;;;;;;10383882;28;20201;-79
2022/12/18 14:51:24;;;;;;;70.97;29.50;;;-3.80;99.90;;;;;;10383948;28;20201;-80
2022/12/18 14:57:07;;;;;;;67.83;26.53;;;-3.90;99.90;;;;;;10397121;28;20424;-80
2022/12/18 15:02:29;;;;;;;126.57;52.37;;;-3.90;1.00;;;;;;10377815;28;20215;-80
2022/12/18 15:07:53;;;;;;;139.83;56.87;;;-4.10;1.00;;;;;;10383569;28;20207;-81
2022/12/18 15:13:24;;;;;;;112.83;50.03;;;-4.30;1.00;;;;;;10396554;28;20452;-79
2022/12/18 15:18:47;;;;;;;116.20;47.33;;;-4.40;1.00;;;;;;10396697;28;20232;-79
2022/12/18 15:24:18;;;;;;;116.60;42.90;;;-4.40;99.90;;;;;;10396607;28;20515;-79
2022/12/18 15:29:39;;;;;;;112.70;41.30;;;-4.50;1.00;;;;;;10395536;28;21883;-78
2022/12/18 15:35:23;;;;;;;93.00;37.73;;;-4.70;99.90;;;;;;10396130;28;20212;-79
2022/12/18 15:40:44;;;;;;;105.47;38.53;;;-4.80;99.90;;;;;;10382027;28;20202;-79
2022/12/18 15:46:15;;;;;;;100.80;41.87;;;-4.90;99.90;;;;;;10395709;28;20194;-79
2022/12/18 15:51:37;;;;;;;100.30;35.57;;;-4.90;6.70;;;;;;10381614;28;20193;-79
2022/12/18 16:02:38;;;;;;;81.97;31.13;;;-5.10;1.00;;;;;;10405864;28;20197;-80
2022/12/18 16:07:59;;;;;;;82.73;32.30;;;-5.20;99.90;;;;;;10381435;28;20200;-79
2022/12/18 16:13:20;;;;;;;79.27;29.30;;;-5.30;1.00;;;;;;10409152;28;20239;-78
2022/12/18 16:18:41;;;;;;;87.13;32.90;;;-5.20;99.90;;;;;;10380931;28;20400;-79
2022/12/18 16:24:03;;;;;;;118.83;46.90;;;-5.40;1.00;;;;;;10398119;28;20189;-78
2022/12/18 16:29:26;;;;;;;98.37;37.67;;;-5.60;1.00;;;;;;10389189;28;20233;-78
2022/12/18 16:34:48;;;;;;;72.73;32.57;;;-5.70;99.90;;;;;;10388936;28;20224;-78
2022/12/18 16:40:13;;;;;;;76.73;33.37;;;-5.80;1.00;;;;;;10388655;28;20228;-78
2022/12/18 16:45:34;;;;;;;87.00;35.53;;;-5.80;99.90;;;;;;10402608;28;20212;-79
2022/12/18 16:51:04;;;;;;;108.03;41.37;;;-5.80;99.90;;;;;;10402118;28;20272;-78
2022/12/18 16:56:25;;;;;;;120.57;49.00;;;-5.80;1.00;;;;;;10364487;28;20218;-79
2022/12/18 17:01:46;;;;;;;106.80;45.07;;;-5.90;99.90;;;;;;10383563;28;20288;-79
2022/12/18 17:07:09;;;;;;;201.23;82.60;;;-5.90;15.80;;;;;;10388215;28;20221;-79
2022/12/18 17:12:30;;;;;;;143.30;59.77;;;-6.20;1.00;;;;;;10373671;28;20259;-81
2022/12/18 17:17:51;;;;;;;110.63;41.90;;;-6.30;99.90;;;;;;10387218;28;20446;-79
2022/12/18 17:23:13;;;;;;;79.97;33.40;;;-6.20;1.00;;;;;;10400712;28;20212;-79
2022/12/18 17:28:34;;;;;;;80.73;34.40;;;-6.20;1.00;;;;;;10400617;28;20208;-79
2022/12/18 17:33:56;;;;;;;81.17;35.27;;;-6.20;1.00;;;;;;10400774;28;20188;-79
2022/12/18 17:39:19;;;;;;;105.70;42.33;;;-6.00;1.00;;;;;;10400375;28;20240;-78
2022/12/18 17:44:41;;;;;;;131.80;48.17;;;-6.00;1.00;;;;;;10386449;28;20518;-78
2022/12/18 17:50:03;;;;;;;116.17;43.87;;;-5.90;1.00;;;;;;10386224;28;20264;-78
2022/12/18 17:55:25;;;;;;;117.83;44.07;;;-5.80;1.00;;;;;;10382656;28;20195;-78
2022/12/18 18:00:46;;;;;;;123.40;42.30;;;-5.80;99.90;;;;;;10371781;28;20594;-78
2022/12/18 18:06:07;;;;;;;129.87;47.80;;;-5.70;1.00;;;;;;10400936;28;20238;-79
2022/12/18 18:17:08;;;;;;;96.27;34.93;;;-5.70;44.90;;;;;;10385148;28;20292;-78
2022/12/18 18:22:30;;;;;;;97.73;40.10;;;-5.60;99.90;;;;;;10398772;28;20513;-79
2022/12/18 18:27:51;;;;;;;86.10;31.77;;;-5.70;99.90;;;;;;10384952;28;20193;-79
2022/12/18 18:33:12;;;;;;;120.70;47.80;;;-5.70;99.90;;;;;;10384504;28;20309;-79
2022/12/18 18:38:33;;;;;;;94.67;36.27;;;-5.70;99.90;;;;;;10384115;28;20581;-80
2022/12/18 18:43:56;;;;;;;70.63;28.17;;;-5.50;99.90;;;;;;10384356;28;20197;-79
2022/12/18 18:49:17;;;;;;;83.23;35.53;;;-5.50;99.90;;;;;;10382825;28;20192;-78
2022/12/18 18:54:38;;;;;;;125.60;43.53;;;-5.60;99.90;;;;;;10397551;28;20192;-79
2022/12/18 19:00:08;;;;;;;85.13;33.50;;;-5.60;1.00;;;;;;10378071;28;20233;-79
2022/12/18 19:05:33;;;;;;;116.17;42.13;;;-5.50;99.90;;;;;;10383855;28;20205;-78
2022/12/18 19:10:56;;;;;;;119.63;44.07;;;-5.40;99.90;;;;;;10382919;28;20203;-78
2022/12/18 19:16:18;;;;;;;104.93;39.03;;;-5.40;99.90;;;;;;10383004;28;20201;-79
2022/12/18 19:21:39;;;;;;;96.47;35.13;;;-5.40;99.90;;;;;;10382420;28;20451;-79
2022/12/18 19:27:00;;;;;;;102.53;37.50;;;-5.40;99.90;;;;;;10382703;28;20193;-78
2022/12/18 19:32:21;;;;;;;84.97;33.77;;;-5.50;1.00;;;;;;10396470;28;20486;-79
2022/12/18 19:37:43;;;;;;;79.90;32.77;;;-5.40;1.00;;;;;;10368389;28;20417;-79
2022/12/18 19:43:04;;;;;;;94.40;39.73;;;-5.50;1.00;;;;;;10368496;28;20495;-78
2022/12/18 19:48:26;;;;;;;112.53;40.30;;;-5.50;1.00;;;;;;10382130;28;20201;-79
2022/12/18 19:53:47;;;;;;;96.73;37.87;;;-5.40;1.00;;;;;;10380888;28;20193;-79
2022/12/18 19:59:10;;;;;;;161.33;51.33;;;-5.30;1.00;;;;;;10386800;28;20225;-80
2022/12/18 20:04:31;;;;;;;210.30;65.87;;;-5.30;99.90;;;;;;10377139;28;20212;-78
2022/12/18 20:09:52;;;;;;;89.67;34.93;;;-5.40;1.00;;;;;;10381266;28;20224;-79
2022/12/18 20:15:18;;;;;;;78.57;32.87;;;-5.30;1.00;;;;;;10396103;28;20201;-81
2022/12/18 20:20:39;;;;;;;82.90;32.50;;;-5.20;1.00;;;;;;10380639;28;20516;-79
2022/12/18 20:26:01;;;;;;;86.90;32.20;;;-5.20;1.00;;;;;;10394589;28;20191;-79
2022/12/18 20:31:22;;;;;;;88.80;35.60;;;-5.10;1.00;;;;;;10380557;28;20259;-78
2022/12/18 20:36:43;;;;;;;88.23;32.47;;;-5.10;1.00;;;;;;10380601;28;20220;-78
2022/12/18 20:42:05;;;;;;;80.43;33.23;;;-5.10;1.00;;;;;;10395498;28;20200;-79
2022/12/18 20:47:26;;;;;;;74.53;28.97;;;-5.10;1.00;;;;;;10395316;28;20189;-78
2022/12/18 20:52:47;;;;;;;66.63;27.47;;;-5.00;1.00;;;;;;10380206;28;20208;-79
2022/12/18 20:58:08;;;;;;;79.97;31.47;;;-5.00;99.90;;;;;;10393977;28;20236;-80
2022/12/18 21:03:29;;;;;;;72.80;30.20;;;-5.00;1.00;;;;;;10393507;28;20207;-79
2022/12/18 21:08:50;;;;;;;76.77;32.63;;;-5.00;99.90;;;;;;10394089;28;20218;-78
2022/12/18 21:14:12;;;;;;;73.87;28.90;;;-5.00;1.00;;;;;;10387247;28;20201;-80
2022/12/18 21:19:34;;;;;;;76.33;29.57;;;-5.10;1.00;;;;;;10387051;28;20237;-80
2022/12/18 21:24:54;;;;;;;98.70;36.17;;;-5.00;1.00;;;;;;10401302;28;20185;-80
2022/12/18 21:30:16;;;;;;;87.97;33.27;;;-5.20;1.00;;;;;;10386852;28;20462;-80
2022/12/18 21:35:37;;;;;;;74.43;29.17;;;-5.10;1.00;;;;;;10386715;28;20228;-80
2022/12/18 21:40:58;;;;;;;79.60;28.77;;;-5.00;1.00;;;;;;10414550;28;20231;-80
2022/12/18 21:46:20;;;;;;;74.73;29.10;;;-5.10;99.90;;;;;;10400095;28;20276;-81
2022/12/18 21:51:41;;;;;;;75.37;29.67;;;-5.10;1.00;;;;;;10399895;28;20197;-80
2022/12/18 21:57:05;;;;;;;72.27;29.67;;;-5.10;1.00;;;;;;10386165;28;20510;-78
2022/12/18 22:02:26;;;;;;;74.53;30.20;;;-5.00;99.90;;;;;;10392101;28;20205;-78
2022/12/18 22:07:47;;;;;;;88.20;33.73;;;-5.00;99.90;;;;;;10399970;28;20194;-79
2022/12/18 22:13:08;;;;;;;76.77;31.67;;;-5.10;1.00;;;;;;10385450;28;20492;-79
2022/12/18 22:18:29;;;;;;;86.37;33.27;;;-5.10;1.00;;;;;;10371452;28;20255;-79
2022/12/18 22:24:02;;;;;;;98.40;36.77;;;-5.20;1.00;;;;;;10371053;28;20234;-80
2022/12/18 22:35:05;;;;;;;61.83;26.07;;;-5.20;1.00;;;;;;10384605;28;20203;-78
2022/12/18 22:40:29;;;;;;;69.43;27.50;;;-5.20;1.00;;;;;;10384253;28;20535;-78
2022/12/18 22:45:50;;;;;;;68.37;28.97;;;-5.30;1.00;;;;;;10412132;28;20193;-78
2022/12/18 22:51:16;;;;;;;62.80;25.93;;;-5.30;1.00;;;;;;10383995;28;20267;-78
2022/12/18 22:56:37;;;;;;;73.27;32.33;;;-5.20;99.90;;;;;;10384951;28;20205;-78
2022/12/18 23:01:59;;;;;;;84.00;32.17;;;-5.30;99.90;;;;;;10377149;28;20212;-78
2022/12/18 23:07:20;;;;;;;76.90;30.87;;;-5.30;99.90;;;;;;10383462;28;20208;-78
2022/12/18 23:12:41;;;;;;;78.90;31.50;;;-5.50;1.00;;;;;;10396942;28;20512;-78
2022/12/18 23:18:03;;;;;;;81.47;36.13;;;-5.50;1.00;;;;;;10382686;28;20235;-78
2022/12/18 23:23:24;;;;;;;65.97;25.97;;;-5.60;1.00;;;;;;10396347;28;20193;-78
2022/12/18 23:28:46;;;;;;;72.17;28.33;;;-5.50;99.90;;;;;;10396481;28;20200;-78
2022/12/18 23:34:10;;;;;;;71.23;27.33;;;-5.40;99.90;;;;;;10396873;28;20264;-78
2022/12/18 23:39:31;;;;;;;62.37;25.20;;;-5.50;99.90;;;;;;10382273;28;20225;-79
2022/12/18 23:44:53;;;;;;;70.10;28.10;;;-5.60;99.90;;;;;;10381966;28;20247;-78
2022/12/18 23:50:14;;;;;;;78.40;28.83;;;-5.50;99.90;;;;;;10381737;28;20425;-79
2022/12/18 23:55:40;;;;;;;79.93;29.70;;;-5.70;99.90;;;;;;10381869;28;20224;-79
